sensor_id;sensor_type;location;lat;lon;timestamp;temperature;humidity
67093;SHT31;54011;50.772;7.730;2023-04-24T00:00:47;17.75;58.94
67093;SHT31;54011;50.772;7.730;2023-04-24T00:03:13;17.46;60.07
67093;SHT31;54011;50.772;7.730;2023-04-24T00:05:38;17.02;60.30
67093;SHT31;54011;50.772;7.730;2023-04-24T00:08:05;17.11;60.72
67093;SHT31;54011;50.772;7.730;2023-04-24T00:10:31;16.75;61.88
67093;SHT31;54011;50.772;7.730;2023-04-24T00:12:57;16.84;62.07
67093;SHT31;54011;50.772;7.730;2023-04-24T00:15:22;16.82;61.97
67093;SHT31;54011;50.772;7.730;2023-04-24T00:17:48;16.68;62.28
67093;SHT31;54011;50.772;7.730;2023-04-24T00:20:13;17.27;61.26
67093;SHT31;54011;50.772;7.730;2023-04-24T00:22:40;17.18;61.01
67093;SHT31;54011;50.772;7.730;2023-04-24T00:25:05;17.08;61.74
67093;SHT31;54011;50.772;7.730;2023-04-24T00:27:31;17.19;61.58
67093;SHT31;54011;50.772;7.730;2023-04-24T00:29:57;17.60;60.12
67093;SHT31;54011;50.772;7.730;2023-04-24T00:32:22;17.59;60.07
67093;SHT31;54011;50.772;7.730;2023-04-24T00:34:48;17.36;61.31
67093;SHT31;54011;50.772;7.730;2023-04-24T00:37:13;16.89;62.01
67093;SHT31;54011;50.772;7.730;2023-04-24T00:39:39;17.02;61.23
67093;SHT31;54011;50.772;7.730;2023-04-24T00:42:04;17.13;60.70
67093;SHT31;54011;50.772;7.730;2023-04-24T00:44:32;16.54;61.82
67093;SHT31;54011;50.772;7.730;2023-04-24T00:46:58;16.64;61.67
67093;SHT31;54011;50.772;7.730;2023-04-24T00:49:24;17.08;61.22
67093;SHT31;54011;50.772;7.730;2023-04-24T00:51:50;16.55;61.76
67093;SHT31;54011;50.772;7.730;2023-04-24T00:54:17;16.64;63.21
67093;SHT31;54011;50.772;7.730;2023-04-24T00:56:43;16.43;64.56
67093;SHT31;54011;50.772;7.730;2023-04-24T00:59:11;16.47;65.22
67093;SHT31;54011;50.772;7.730;2023-04-24T01:01:38;16.76;64.65
67093;SHT31;54011;50.772;7.730;2023-04-24T01:04:08;16.47;65.16
67093;SHT31;54011;50.772;7.730;2023-04-24T01:06:38;16.31;65.69
67093;SHT31;54011;50.772;7.730;2023-04-24T01:09:04;16.30;66.41
67093;SHT31;54011;50.772;7.730;2023-04-24T01:11:30;16.44;65.92
67093;SHT31;54011;50.772;7.730;2023-04-24T01:13:57;16.28;65.86
67093;SHT31;54011;50.772;7.730;2023-04-24T01:16:22;16.07;66.46
67093;SHT31;54011;50.772;7.730;2023-04-24T01:18:48;16.18;66.21
67093;SHT31;54011;50.772;7.730;2023-04-24T01:21:15;16.06;66.62
67093;SHT31;54011;50.772;7.730;2023-04-24T01:23:44;16.51;64.91
67093;SHT31;54011;50.772;7.730;2023-04-24T01:26:11;16.95;63.70
67093;SHT31;54011;50.772;7.730;2023-04-24T01:28:37;16.54;64.77
67093;SHT31;54011;50.772;7.730;2023-04-24T01:31:05;17.06;63.54
67093;SHT31;54011;50.772;7.730;2023-04-24T01:33:30;16.96;63.39
67093;SHT31;54011;50.772;7.730;2023-04-24T01:35:56;17.18;62.81
67093;SHT31;54011;50.772;7.730;2023-04-24T01:38:22;17.36;62.61
67093;SHT31;54011;50.772;7.730;2023-04-24T01:40:49;16.67;63.78
67093;SHT31;54011;50.772;7.730;2023-04-24T01:43:20;16.71;63.58
67093;SHT31;54011;50.772;7.730;2023-04-24T01:45:50;16.99;63.42
67093;SHT31;54011;50.772;7.730;2023-04-24T01:48:15;16.79;64.14
67093;SHT31;54011;50.772;7.730;2023-04-24T01:50:41;16.35;65.08
67093;SHT31;54011;50.772;7.730;2023-04-24T01:53:07;16.41;64.84
67093;SHT31;54011;50.772;7.730;2023-04-24T01:55:33;16.47;64.88
67093;SHT31;54011;50.772;7.730;2023-04-24T01:57:59;16.64;64.26
67093;SHT31;54011;50.772;7.730;2023-04-24T02:00:25;16.20;65.58
67093;SHT31;54011;50.772;7.730;2023-04-24T02:02:52;15.87;65.37
67093;SHT31;54011;50.772;7.730;2023-04-24T02:05:18;16.10;65.38
67093;SHT31;54011;50.772;7.730;2023-04-24T02:07:44;16.09;65.97
67093;SHT31;54011;50.772;7.730;2023-04-24T02:10:10;16.09;65.31
67093;SHT31;54011;50.772;7.730;2023-04-24T02:12:35;15.76;65.93
67093;SHT31;54011;50.772;7.730;2023-04-24T02:15:01;15.83;65.47
67093;SHT31;54011;50.772;7.730;2023-04-24T02:17:27;15.67;65.31
67093;SHT31;54011;50.772;7.730;2023-04-24T02:19:53;16.00;65.09
67093;SHT31;54011;50.772;7.730;2023-04-24T02:22:18;16.10;64.52
67093;SHT31;54011;50.772;7.730;2023-04-24T02:24:44;16.12;64.88
67093;SHT31;54011;50.772;7.730;2023-04-24T02:27:09;15.87;65.29
67093;SHT31;54011;50.772;7.730;2023-04-24T02:29:36;16.40;64.55
67093;SHT31;54011;50.772;7.730;2023-04-24T02:32:02;16.12;64.31
67093;SHT31;54011;50.772;7.730;2023-04-24T02:34:28;16.33;64.15
67093;SHT31;54011;50.772;7.730;2023-04-24T02:36:53;15.86;66.35
67093;SHT31;54011;50.772;7.730;2023-04-24T02:39:19;16.09;65.36
67093;SHT31;54011;50.772;7.730;2023-04-24T02:41:45;16.63;64.02
67093;SHT31;54011;50.772;7.730;2023-04-24T02:44:11;16.37;64.84
67093;SHT31;54011;50.772;7.730;2023-04-24T02:46:36;15.96;65.12
67093;SHT31;54011;50.772;7.730;2023-04-24T02:49:02;15.90;64.69
67093;SHT31;54011;50.772;7.730;2023-04-24T02:51:28;16.61;63.13
67093;SHT31;54011;50.772;7.730;2023-04-24T02:53:54;16.02;63.15
67093;SHT31;54011;50.772;7.730;2023-04-24T02:56:19;15.86;63.29
67093;SHT31;54011;50.772;7.730;2023-04-24T02:58:45;16.06;62.87
67093;SHT31;54011;50.772;7.730;2023-04-24T03:01:10;15.21;62.12
67093;SHT31;54011;50.772;7.730;2023-04-24T03:06:59;16.07;60.79
67093;SHT31;54011;50.772;7.730;2023-04-24T03:09:27;15.73;61.04
67093;SHT31;54011;50.772;7.730;2023-04-24T03:11:55;15.30;60.69
67093;SHT31;54011;50.772;7.730;2023-04-24T03:14:22;15.23;61.24
67093;SHT31;54011;50.772;7.730;2023-04-24T03:16:48;15.67;59.64
67093;SHT31;54011;50.772;7.730;2023-04-24T03:19:13;15.76;59.61
67093;SHT31;54011;50.772;7.730;2023-04-24T03:21:58;15.46;61.54
67093;SHT31;54011;50.772;7.730;2023-04-24T03:24:23;14.96;60.15
67093;SHT31;54011;50.772;7.730;2023-04-24T03:26:49;14.97;59.42
67093;SHT31;54011;50.772;7.730;2023-04-24T03:29:27;14.93;58.95
67093;SHT31;54011;50.772;7.730;2023-04-24T03:31:53;15.34;58.28
67093;SHT31;54011;50.772;7.730;2023-04-24T03:34:18;15.31;58.08
67093;SHT31;54011;50.772;7.730;2023-04-24T03:36:45;15.65;58.44
67093;SHT31;54011;50.772;7.730;2023-04-24T03:39:13;15.66;58.51
67093;SHT31;54011;50.772;7.730;2023-04-24T03:41:44;15.15;58.64
67093;SHT31;54011;50.772;7.730;2023-04-24T03:44:15;15.41;58.43
67093;SHT31;54011;50.772;7.730;2023-04-24T03:46:42;15.62;58.62
67093;SHT31;54011;50.772;7.730;2023-04-24T03:49:08;15.61;58.64
67093;SHT31;54011;50.772;7.730;2023-04-24T03:51:37;15.05;58.45
67093;SHT31;54011;50.772;7.730;2023-04-24T03:54:19;15.41;59.27
67093;SHT31;54011;50.772;7.730;2023-04-24T03:56:45;14.96;59.22
67093;SHT31;54011;50.772;7.730;2023-04-24T03:59:11;15.41;58.11
67093;SHT31;54011;50.772;7.730;2023-04-24T04:01:39;15.23;58.09
67093;SHT31;54011;50.772;7.730;2023-04-24T04:04:11;14.55;58.69
67093;SHT31;54011;50.772;7.730;2023-04-24T04:06:38;15.21;57.89
67093;SHT31;54011;50.772;7.730;2023-04-24T04:09:04;15.01;57.21
67093;SHT31;54011;50.772;7.730;2023-04-24T04:11:31;15.05;57.56
67093;SHT31;54011;50.772;7.730;2023-04-24T04:13:58;15.21;56.34
67093;SHT31;54011;50.772;7.730;2023-04-24T04:16:24;14.37;57.79
67093;SHT31;54011;50.772;7.730;2023-04-24T04:18:54;14.33;57.14
67093;SHT31;54011;50.772;7.730;2023-04-24T04:21:20;14.63;57.34
67093;SHT31;54011;50.772;7.730;2023-04-24T04:23:53;14.79;56.60
67093;SHT31;54011;50.772;7.730;2023-04-24T04:26:25;14.47;56.87
67093;SHT31;54011;50.772;7.730;2023-04-24T04:29:14;14.59;57.34
67093;SHT31;54011;50.772;7.730;2023-04-24T04:31:42;15.30;56.02
67093;SHT31;54011;50.772;7.730;2023-04-24T04:34:13;15.15;55.78
67093;SHT31;54011;50.772;7.730;2023-04-24T04:36:45;15.24;56.05
67093;SHT31;54011;50.772;7.730;2023-04-24T04:39:26;14.79;56.59
67093;SHT31;54011;50.772;7.730;2023-04-24T04:41:59;14.40;57.39
67093;SHT31;54011;50.772;7.730;2023-04-24T04:44:31;14.83;56.05
67093;SHT31;54011;50.772;7.730;2023-04-24T04:46:58;14.59;56.68
67093;SHT31;54011;50.772;7.730;2023-04-24T04:49:32;14.77;56.33
67093;SHT31;54011;50.772;7.730;2023-04-24T04:51:59;14.96;56.59
67093;SHT31;54011;50.772;7.730;2023-04-24T04:54:27;14.98;56.05
67093;SHT31;54011;50.772;7.730;2023-04-24T04:56:53;14.97;55.32
67093;SHT31;54011;50.772;7.730;2023-04-24T04:59:21;14.26;56.87
67093;SHT31;54011;50.772;7.730;2023-04-24T05:01:50;14.77;56.04
67093;SHT31;54011;50.772;7.730;2023-04-24T05:04:16;14.98;55.81
67093;SHT31;54011;50.772;7.730;2023-04-24T05:06:42;15.46;54.65
67093;SHT31;54011;50.772;7.730;2023-04-24T05:09:08;15.05;55.40
67093;SHT31;54011;50.772;7.730;2023-04-24T05:11:41;14.69;55.94
67093;SHT31;54011;50.772;7.730;2023-04-24T05:14:07;15.23;55.68
67093;SHT31;54011;50.772;7.730;2023-04-24T05:16:38;15.35;55.04
67093;SHT31;54011;50.772;7.730;2023-04-24T05:19:05;15.78;54.08
67093;SHT31;54011;50.772;7.730;2023-04-24T05:21:35;15.52;54.48
67093;SHT31;54011;50.772;7.730;2023-04-24T05:24:02;15.23;54.75
67093;SHT31;54011;50.772;7.730;2023-04-24T05:26:54;14.77;55.56
67093;SHT31;54011;50.772;7.730;2023-04-24T05:29:26;15.11;56.03
67093;SHT31;54011;50.772;7.730;2023-04-24T05:31:52;15.28;55.59
67093;SHT31;54011;50.772;7.730;2023-04-24T05:34:19;15.10;55.23
67093;SHT31;54011;50.772;7.730;2023-04-24T05:36:51;14.65;56.97
67093;SHT31;54011;50.772;7.730;2023-04-24T05:39:16;14.72;55.96
67093;SHT31;54011;50.772;7.730;2023-04-24T05:41:43;14.93;55.70
67093;SHT31;54011;50.772;7.730;2023-04-24T05:44:10;15.03;55.63
67093;SHT31;54011;50.772;7.730;2023-04-24T05:46:39;14.91;56.01
67093;SHT31;54011;50.772;7.730;2023-04-24T05:49:04;14.87;54.58
67093;SHT31;54011;50.772;7.730;2023-04-24T05:51:31;14.57;55.57
67093;SHT31;54011;50.772;7.730;2023-04-24T05:53:59;14.88;55.70
67093;SHT31;54011;50.772;7.730;2023-04-24T05:56:27;15.12;54.93
67093;SHT31;54011;50.772;7.730;2023-04-24T05:58:54;15.20;55.80
67093;SHT31;54011;50.772;7.730;2023-04-24T06:01:20;14.87;56.63
67093;SHT31;54011;50.772;7.730;2023-04-24T06:03:54;15.03;55.84
67093;SHT31;54011;50.772;7.730;2023-04-24T06:06:20;14.98;55.70
67093;SHT31;54011;50.772;7.730;2023-04-24T06:08:48;15.24;55.20
67093;SHT31;54011;50.772;7.730;2023-04-24T06:11:15;15.85;54.48
67093;SHT31;54011;50.772;7.730;2023-04-24T06:13:41;15.28;55.94
67093;SHT31;54011;50.772;7.730;2023-04-24T06:16:29;15.48;55.63
67093;SHT31;54011;50.772;7.730;2023-04-24T06:19:01;15.65;55.75
67093;SHT31;54011;50.772;7.730;2023-04-24T06:21:27;15.24;55.86
67093;SHT31;54011;50.772;7.730;2023-04-24T06:23:53;15.17;56.39
67093;SHT31;54011;50.772;7.730;2023-04-24T06:26:19;15.70;55.94
67093;SHT31;54011;50.772;7.730;2023-04-24T06:28:45;14.97;56.34
67093;SHT31;54011;50.772;7.730;2023-04-24T06:31:10;15.73;55.25
67093;SHT31;54011;50.772;7.730;2023-04-24T06:33:37;15.69;55.55
67093;SHT31;54011;50.772;7.730;2023-04-24T06:36:03;15.87;55.13
67093;SHT31;54011;50.772;7.730;2023-04-24T06:38:29;15.70;55.65
67093;SHT31;54011;50.772;7.730;2023-04-24T06:40:54;15.63;55.82
67093;SHT31;54011;50.772;7.730;2023-04-24T06:43:22;16.45;53.98
67093;SHT31;54011;50.772;7.730;2023-04-24T06:45:47;15.72;55.48
67093;SHT31;54011;50.772;7.730;2023-04-24T06:48:13;15.66;55.88
67093;SHT31;54011;50.772;7.730;2023-04-24T06:50:38;15.56;56.60
67093;SHT31;54011;50.772;7.730;2023-04-24T06:53:03;15.58;56.67
67093;SHT31;54011;50.772;7.730;2023-04-24T06:55:30;15.90;56.72
67093;SHT31;54011;50.772;7.730;2023-04-24T06:58:01;15.62;55.84
67093;SHT31;54011;50.772;7.730;2023-04-24T07:00:26;16.43;55.03
67093;SHT31;54011;50.772;7.730;2023-04-24T07:02:52;15.86;55.01
67093;SHT31;54011;50.772;7.730;2023-04-24T07:05:17;16.57;54.34
67093;SHT31;54011;50.772;7.730;2023-04-24T07:07:46;17.35;53.20
67093;SHT31;54011;50.772;7.730;2023-04-24T07:10:12;16.98;54.29
67093;SHT31;54011;50.772;7.730;2023-04-24T07:12:38;17.13;53.85
67093;SHT31;54011;50.772;7.730;2023-04-24T07:15:05;17.06;53.91
67093;SHT31;54011;50.772;7.730;2023-04-24T07:17:31;16.37;54.04
67093;SHT31;54011;50.772;7.730;2023-04-24T07:19:58;16.47;54.34
67093;SHT31;54011;50.772;7.730;2023-04-24T07:22:24;16.55;54.91
67093;SHT31;54011;50.772;7.730;2023-04-24T07:24:49;16.43;55.46
67093;SHT31;54011;50.772;7.730;2023-04-24T07:27:15;16.86;54.82
67093;SHT31;54011;50.772;7.730;2023-04-24T07:29:41;16.58;56.00
67093;SHT31;54011;50.772;7.730;2023-04-24T07:32:06;15.92;55.68
67093;SHT31;54011;50.772;7.730;2023-04-24T07:34:33;15.86;57.11
67093;SHT31;54011;50.772;7.730;2023-04-24T07:36:58;15.49;58.97
67093;SHT31;54011;50.772;7.730;2023-04-24T07:39:24;15.07;59.67
67093;SHT31;54011;50.772;7.730;2023-04-24T07:41:51;15.48;59.27
67093;SHT31;54011;50.772;7.730;2023-04-24T07:44:18;15.20;59.89
67093;SHT31;54011;50.772;7.730;2023-04-24T07:46:43;15.78;58.71
67093;SHT31;54011;50.772;7.730;2023-04-24T07:49:10;15.97;59.02
67093;SHT31;54011;50.772;7.730;2023-04-24T07:51:36;15.99;59.91
67093;SHT31;54011;50.772;7.730;2023-04-24T07:54:06;15.45;60.60
67093;SHT31;54011;50.772;7.730;2023-04-24T07:56:32;15.86;60.79
67093;SHT31;54011;50.772;7.730;2023-04-24T07:58:59;15.87;60.29
67093;SHT31;54011;50.772;7.730;2023-04-24T08:01:25;15.70;61.45
67093;SHT31;54011;50.772;7.730;2023-04-24T08:03:51;15.14;62.57
67093;SHT31;54011;50.772;7.730;2023-04-24T08:06:17;15.38;62.12
67093;SHT31;54011;50.772;7.730;2023-04-24T08:08:44;15.24;62.32
67093;SHT31;54011;50.772;7.730;2023-04-24T08:11:09;15.62;62.95
67093;SHT31;54011;50.772;7.730;2023-04-24T08:13:35;15.23;62.42
67093;SHT31;54011;50.772;7.730;2023-04-24T08:16:00;14.86;63.54
67093;SHT31;54011;50.772;7.730;2023-04-24T08:18:28;14.81;63.71
67093;SHT31;54011;50.772;7.730;2023-04-24T08:20:56;15.21;62.46
67093;SHT31;54011;50.772;7.730;2023-04-24T08:23:26;15.62;62.43
67093;SHT31;54011;50.772;7.730;2023-04-24T08:25:55;15.42;63.08
67093;SHT31;54011;50.772;7.730;2023-04-24T08:28:23;15.05;63.71
67093;SHT31;54011;50.772;7.730;2023-04-24T08:30:50;15.14;64.01
67093;SHT31;54011;50.772;7.730;2023-04-24T08:33:22;15.41;63.37
67093;SHT31;54011;50.772;7.730;2023-04-24T08:35:48;14.72;63.97
67093;SHT31;54011;50.772;7.730;2023-04-24T08:38:14;14.55;65.23
67093;SHT31;54011;50.772;7.730;2023-04-24T08:40:42;14.81;65.22
67093;SHT31;54011;50.772;7.730;2023-04-24T08:43:08;14.76;65.58
67093;SHT31;54011;50.772;7.730;2023-04-24T08:45:34;14.90;65.68
67093;SHT31;54011;50.772;7.730;2023-04-24T08:48:00;14.73;65.69
67093;SHT31;54011;50.772;7.730;2023-04-24T08:50:26;14.55;66.04
67093;SHT31;54011;50.772;7.730;2023-04-24T08:52:53;14.35;67.31
67093;SHT31;54011;50.772;7.730;2023-04-24T08:55:21;13.92;66.63
67093;SHT31;54011;50.772;7.730;2023-04-24T08:57:52;14.26;66.49
67093;SHT31;54011;50.772;7.730;2023-04-24T09:00:22;13.50;66.35
67093;SHT31;54011;50.772;7.730;2023-04-24T09:02:53;13.46;66.83
67093;SHT31;54011;50.772;7.730;2023-04-24T09:05:20;14.30;65.92
67093;SHT31;54011;50.772;7.730;2023-04-24T09:07:53;13.63;66.88
67093;SHT31;54011;50.772;7.730;2023-04-24T09:10:21;13.87;66.75
67093;SHT31;54011;50.772;7.730;2023-04-24T09:12:46;13.88;66.67
67093;SHT31;54011;50.772;7.730;2023-04-24T09:15:14;13.46;66.47
67093;SHT31;54011;50.772;7.730;2023-04-24T09:17:41;13.57;67.19
67093;SHT31;54011;50.772;7.730;2023-04-24T09:20:09;13.42;67.56
67093;SHT31;54011;50.772;7.730;2023-04-24T09:22:35;13.56;66.75
67093;SHT31;54011;50.772;7.730;2023-04-24T09:25:06;11.80;75.54
67093;SHT31;54011;50.772;7.730;2023-04-24T09:27:33;11.08;75.82
67093;SHT31;54011;50.772;7.730;2023-04-24T09:30:00;10.66;75.86
67093;SHT31;54011;50.772;7.730;2023-04-24T09:32:28;10.84;76.04
67093;SHT31;54011;50.772;7.730;2023-04-24T09:35:08;10.16;77.29
67093;SHT31;54011;50.772;7.730;2023-04-24T09:37:36;10.22;77.17
67093;SHT31;54011;50.772;7.730;2023-04-24T09:40:19;9.94;76.17
67093;SHT31;54011;50.772;7.730;2023-04-24T09:42:50;9.67;76.64
67093;SHT31;54011;50.772;7.730;2023-04-24T09:45:18;9.33;76.71
67093;SHT31;54011;50.772;7.730;2023-04-24T09:47:45;9.82;77.01
67093;SHT31;54011;50.772;7.730;2023-04-24T09:50:12;9.99;76.90
67093;SHT31;54011;50.772;7.730;2023-04-24T09:52:59;9.64;77.03
67093;SHT31;54011;50.772;7.730;2023-04-24T09:55:27;9.44;77.93
67093;SHT31;54011;50.772;7.730;2023-04-24T10:00:27;9.51;78.43
67093;SHT31;54011;50.772;7.730;2023-04-24T10:03:03;9.64;78.19
67093;SHT31;54011;50.772;7.730;2023-04-24T10:05:35;9.75;77.41
67093;SHT31;54011;50.772;7.730;2023-04-24T10:08:07;9.47;77.28
67093;SHT31;54011;50.772;7.730;2023-04-24T10:10:40;9.71;78.06
67093;SHT31;54011;50.772;7.730;2023-04-24T10:13:07;9.95;78.05
67093;SHT31;54011;50.772;7.730;2023-04-24T10:15:34;9.94;78.07
67093;SHT31;54011;50.772;7.730;2023-04-24T10:18:00;10.29;78.78
67093;SHT31;54011;50.772;7.730;2023-04-24T10:20:29;10.30;77.90
67093;SHT31;54011;50.772;7.730;2023-04-24T10:22:57;9.88;78.31
67093;SHT31;54011;50.772;7.730;2023-04-24T10:25:28;9.88;78.30
67093;SHT31;54011;50.772;7.730;2023-04-24T10:27:54;9.64;79.59
67093;SHT31;54011;50.772;7.730;2023-04-24T10:30:28;9.78;79.96
67093;SHT31;54011;50.772;7.730;2023-04-24T10:32:55;9.87;79.46
67093;SHT31;54011;50.772;7.730;2023-04-24T10:35:22;10.28;79.18
67093;SHT31;54011;50.772;7.730;2023-04-24T10:38:05;10.28;78.98
67093;SHT31;54011;50.772;7.730;2023-04-24T10:40:33;10.36;78.91
67093;SHT31;54011;50.772;7.730;2023-04-24T10:43:04;10.36;79.93
67093;SHT31;54011;50.772;7.730;2023-04-24T10:45:35;10.26;80.17
67093;SHT31;54011;50.772;7.730;2023-04-24T10:48:03;10.32;79.78
67093;SHT31;54011;50.772;7.730;2023-04-24T10:50:42;10.53;79.49
67093;SHT31;54011;50.772;7.730;2023-04-24T10:53:18;10.49;79.34
67093;SHT31;54011;50.772;7.730;2023-04-24T10:55:47;10.50;79.03
67093;SHT31;54011;50.772;7.730;2023-04-24T10:58:14;10.22;78.80
67093;SHT31;54011;50.772;7.730;2023-04-24T11:00:43;10.57;81.18
67093;SHT31;54011;50.772;7.730;2023-04-24T11:03:29;10.56;80.05
67093;SHT31;54011;50.772;7.730;2023-04-24T11:05:57;10.71;80.48
67093;SHT31;54011;50.772;7.730;2023-04-24T11:08:44;11.03;80.45
67093;SHT31;54011;50.772;7.730;2023-04-24T11:11:16;10.97;79.16
67093;SHT31;54011;50.772;7.730;2023-04-24T11:14:01;11.63;79.10
67093;SHT31;54011;50.772;7.730;2023-04-24T11:19:26;11.11;78.01
67093;SHT31;54011;50.772;7.730;2023-04-24T11:22:01;10.90;79.27
67093;SHT31;54011;50.772;7.730;2023-04-24T11:24:38;11.19;77.76
67093;SHT31;54011;50.772;7.730;2023-04-24T11:27:17;11.15;76.97
67093;SHT31;54011;50.772;7.730;2023-04-24T11:35:04;11.11;77.57
67093;SHT31;54011;50.772;7.730;2023-04-24T11:37:36;11.72;78.20
67093;SHT31;54011;50.772;7.730;2023-04-24T11:40:04;12.17;76.80
67093;SHT31;54011;50.772;7.730;2023-04-24T11:42:37;12.38;75.91
67093;SHT31;54011;50.772;7.730;2023-04-24T11:45:14;12.35;76.41
67093;SHT31;54011;50.772;7.730;2023-04-24T11:47:41;11.91;75.39
67093;SHT31;54011;50.772;7.730;2023-04-24T11:50:14;12.93;74.54
67093;SHT31;54011;50.772;7.730;2023-04-24T11:52:40;13.67;75.01
67093;SHT31;54011;50.772;7.730;2023-04-24T11:55:25;13.67;74.56
67093;SHT31;54011;50.772;7.730;2023-04-24T11:57:57;13.42;74.60
67093;SHT31;54011;50.772;7.730;2023-04-24T12:00:28;12.84;75.19
67093;SHT31;54011;50.772;7.730;2023-04-24T12:03:07;12.10;76.31
67093;SHT31;54011;50.772;7.730;2023-04-24T12:06:04;11.89;76.63
67093;SHT31;54011;50.772;7.730;2023-04-24T12:08:30;11.67;77.87
67093;SHT31;54011;50.772;7.730;2023-04-24T12:10:57;11.14;78.88
67093;SHT31;54011;50.772;7.730;2023-04-24T12:13:26;11.15;79.21
67093;SHT31;54011;50.772;7.730;2023-04-24T12:15:52;11.04;79.01
67093;SHT31;54011;50.772;7.730;2023-04-24T12:18:18;10.80;79.26
67093;SHT31;54011;50.772;7.730;2023-04-24T12:20:43;10.80;80.99
67093;SHT31;54011;50.772;7.730;2023-04-24T12:23:09;10.97;79.62
67093;SHT31;54011;50.772;7.730;2023-04-24T12:25:34;10.84;78.42
67093;SHT31;54011;50.772;7.730;2023-04-24T12:30:38;11.51;79.36
67093;SHT31;54011;50.772;7.730;2023-04-24T12:33:06;11.18;77.97
67093;SHT31;54011;50.772;7.730;2023-04-24T12:35:34;10.88;77.87
67093;SHT31;54011;50.772;7.730;2023-04-24T12:38:09;10.98;78.89
67093;SHT31;54011;50.772;7.730;2023-04-24T12:40:35;11.17;78.35
67093;SHT31;54011;50.772;7.730;2023-04-24T12:43:22;11.49;77.87
67093;SHT31;54011;50.772;7.730;2023-04-24T12:45:50;11.87;77.46
67093;SHT31;54011;50.772;7.730;2023-04-24T12:48:16;12.16;74.50
67093;SHT31;54011;50.772;7.730;2023-04-24T12:50:44;12.91;74.44
67093;SHT31;54011;50.772;7.730;2023-04-24T12:53:09;13.28;71.77
67093;SHT31;54011;50.772;7.730;2023-04-24T12:55:35;14.98;69.89
67093;SHT31;54011;50.772;7.730;2023-04-24T12:58:06;15.75;66.30
67093;SHT31;54011;50.772;7.730;2023-04-24T13:00:34;15.73;70.43
67093;SHT31;54011;50.772;7.730;2023-04-24T13:03:00;13.95;71.82
67093;SHT31;54011;50.772;7.730;2023-04-24T13:05:27;13.47;73.28
67093;SHT31;54011;50.772;7.730;2023-04-24T13:07:54;12.95;73.60
67093;SHT31;54011;50.772;7.730;2023-04-24T13:10:20;13.47;73.49
67093;SHT31;54011;50.772;7.730;2023-04-24T13:12:47;13.64;73.07
67093;SHT31;54011;50.772;7.730;2023-04-24T13:15:13;13.73;73.43
67093;SHT31;54011;50.772;7.730;2023-04-24T13:17:41;13.84;72.34
67093;SHT31;54011;50.772;7.730;2023-04-24T13:20:08;13.73;73.55
67093;SHT31;54011;50.772;7.730;2023-04-24T13:22:35;13.75;71.25
67093;SHT31;54011;50.772;7.730;2023-04-24T13:25:01;13.84;72.46
67093;SHT31;54011;50.772;7.730;2023-04-24T13:27:27;13.00;72.46
67093;SHT31;54011;50.772;7.730;2023-04-24T13:29:52;13.19;74.31
67093;SHT31;54011;50.772;7.730;2023-04-24T13:32:18;13.71;74.34
67093;SHT31;54011;50.772;7.730;2023-04-24T13:34:47;13.36;72.22
67093;SHT31;54011;50.772;7.730;2023-04-24T13:37:13;13.81;71.18
67093;SHT31;54011;50.772;7.730;2023-04-24T13:39:40;14.65;70.01
67093;SHT31;54011;50.772;7.730;2023-04-24T13:42:06;15.32;67.99
67093;SHT31;54011;50.772;7.730;2023-04-24T13:44:32;14.16;67.57
67093;SHT31;54011;50.772;7.730;2023-04-24T13:46:58;14.26;69.97
67093;SHT31;54011;50.772;7.730;2023-04-24T13:49:28;14.12;69.05
67093;SHT31;54011;50.772;7.730;2023-04-24T13:51:55;13.77;71.37
67093;SHT31;54011;50.772;7.730;2023-04-24T13:54:24;13.34;69.83
67093;SHT31;54011;50.772;7.730;2023-04-24T13:56:51;13.79;72.14
67093;SHT31;54011;50.772;7.730;2023-04-24T13:59:17;14.06;69.79
67093;SHT31;54011;50.772;7.730;2023-04-24T14:01:42;15.44;65.97
67093;SHT31;54011;50.772;7.730;2023-04-24T14:04:11;15.42;63.29
67093;SHT31;54011;50.772;7.730;2023-04-24T14:06:38;16.58;61.28
67093;SHT31;54011;50.772;7.730;2023-04-24T14:09:03;17.44;58.05
67093;SHT31;54011;50.772;7.730;2023-04-24T14:11:29;16.55;63.47
67093;SHT31;54011;50.772;7.730;2023-04-24T14:13:55;14.01;67.05
67093;SHT31;54011;50.772;7.730;2023-04-24T14:16:23;13.68;67.47
67093;SHT31;54011;50.772;7.730;2023-04-24T14:18:49;13.60;68.81
67093;SHT31;54011;50.772;7.730;2023-04-24T14:21:15;13.75;68.91
67093;SHT31;54011;50.772;7.730;2023-04-24T14:23:41;13.67;70.31
67093;SHT31;54011;50.772;7.730;2023-04-24T14:26:06;13.64;70.57
67093;SHT31;54011;50.772;7.730;2023-04-24T14:28:32;13.40;70.85
67093;SHT31;54011;50.772;7.730;2023-04-24T14:30:57;12.88;71.94
67093;SHT31;54011;50.772;7.730;2023-04-24T14:33:23;12.81;73.54
67093;SHT31;54011;50.772;7.730;2023-04-24T14:35:49;11.89;73.78
67093;SHT31;54011;50.772;7.730;2023-04-24T14:38:15;12.38;75.30
67093;SHT31;54011;50.772;7.730;2023-04-24T14:40:41;12.31;72.27
67093;SHT31;54011;50.772;7.730;2023-04-24T14:43:06;12.74;71.39
67093;SHT31;54011;50.772;7.730;2023-04-24T14:45:32;15.18;65.22
67093;SHT31;54011;50.772;7.730;2023-04-24T14:47:57;15.45;65.29
67093;SHT31;54011;50.772;7.730;2023-04-24T14:50:23;15.54;64.20
67093;SHT31;54011;50.772;7.730;2023-04-24T14:52:50;14.91;69.17
67093;SHT31;54011;50.772;7.730;2023-04-24T14:55:17;14.09;67.15
67093;SHT31;54011;50.772;7.730;2023-04-24T14:57:45;13.56;67.90
67093;SHT31;54011;50.772;7.730;2023-04-24T15:00:12;13.60;69.01
67093;SHT31;54011;50.772;7.730;2023-04-24T15:02:38;13.68;69.16
67093;SHT31;54011;50.772;7.730;2023-04-24T15:05:10;14.22;68.34
67093;SHT31;54011;50.772;7.730;2023-04-24T15:07:40;15.14;66.29
67093;SHT31;54011;50.772;7.730;2023-04-24T15:10:08;17.06;61.43
67093;SHT31;54011;50.772;7.730;2023-04-24T15:12:37;17.22;61.08
67093;SHT31;54011;50.772;7.730;2023-04-24T15:15:05;18.94;57.88
67093;SHT31;54011;50.772;7.730;2023-04-24T15:17:31;18.56;57.28
67093;SHT31;54011;50.772;7.730;2023-04-24T15:19:57;18.39;57.75
67093;SHT31;54011;50.772;7.730;2023-04-24T15:22:22;16.79;62.96
67093;SHT31;54011;50.772;7.730;2023-04-24T15:24:47;18.24;56.91
67093;SHT31;54011;50.772;7.730;2023-04-24T15:27:13;17.83;56.63
67093;SHT31;54011;50.772;7.730;2023-04-24T15:29:39;18.97;53.17
67093;SHT31;54011;50.772;7.730;2023-04-24T15:32:05;18.31;58.83
67093;SHT31;54011;50.772;7.730;2023-04-24T15:34:32;17.30;54.81
67093;SHT31;54011;50.772;7.730;2023-04-24T15:36:58;16.76;58.83
67093;SHT31;54011;50.772;7.730;2023-04-24T15:39:24;17.39;56.24
67093;SHT31;54011;50.772;7.730;2023-04-24T15:41:52;16.14;58.52
67093;SHT31;54011;50.772;7.730;2023-04-24T15:44:19;15.66;61.49
67093;SHT31;54011;50.772;7.730;2023-04-24T15:46:45;17.91;54.90
67093;SHT31;54011;50.772;7.730;2023-04-24T15:49:10;18.90;54.14
67093;SHT31;54011;50.772;7.730;2023-04-24T15:51:36;17.63;55.17
67093;SHT31;54011;50.772;7.730;2023-04-24T15:54:03;17.27;57.57